sensor_id;sensor_type;location;lat;lon;timestamp;P1;durP1;ratioP1;P2;durP2;ratioP2
75732;SDS011;73508;47.450;19.128;2024-03-17T00:00:39;3.73;;;1.50;;
75732;SDS011;73508;47.450;19.128;2024-03-17T00:03:05;3.87;;;1.52;;
75732;SDS011;73508;47.450;19.128;2024-03-17T00:05:33;3.55;;;1.30;;
75732;SDS011;73508;47.450;19.128;2024-03-17T00:07:59;3.87;;;1.43;;
75732;SDS011;73508;47.450;19.128;2024-03-17T00:10:24;3.00;;;1.12;;
75732;SDS011;73508;47.450;19.128;2024-03-17T00:12:50;3.90;;;1.40;;
75732;SDS011;73508;47.450;19.128;2024-03-17T00:15:16;3.10;;;1.20;;
75732;SDS011;73508;47.450;19.128;2024-03-17T00:17:41;3.33;;;1.50;;
75732;SDS011;73508;47.450;19.128;2024-03-17T00:20:07;3.70;;;1.33;;
75732;SDS011;73508;47.450;19.128;2024-03-17T00:22:48;3.28;;;1.02;;
75732;SDS011;73508;47.450;19.128;2024-03-17T00:25:13;3.70;;;1.20;;
75732;SDS011;73508;47.450;19.128;2024-03-17T00:27:39;3.23;;;1.00;;
75732;SDS011;73508;47.450;19.128;2024-03-17T00:30:08;3.03;;;1.17;;
75732;SDS011;73508;47.450;19.128;2024-03-17T00:32:37;4.53;;;1.30;;
75732;SDS011;73508;47.450;19.128;2024-03-17T00:35:03;2.90;;;1.10;;
75732;SDS011;73508;47.450;19.128;2024-03-17T00:37:29;11.23;;;1.23;;
75732;SDS011;73508;47.450;19.128;2024-03-17T00:39:55;2.50;;;0.90;;
75732;SDS011;73508;47.450;19.128;2024-03-17T00:42:20;3.17;;;0.90;;
75732;SDS011;73508;47.450;19.128;2024-03-17T00:44:45;2.73;;;1.00;;
75732;SDS011;73508;47.450;19.128;2024-03-17T00:47:11;3.67;;;1.40;;
75732;SDS011;73508;47.450;19.128;2024-03-17T00:49:36;4.10;;;1.00;;
75732;SDS011;73508;47.450;19.128;2024-03-17T00:52:01;3.63;;;1.00;;
75732;SDS011;73508;47.450;19.128;2024-03-17T00:54:27;3.60;;;1.23;;
75732;SDS011;73508;47.450;19.128;2024-03-17T00:56:52;3.00;;;1.05;;
75732;SDS011;73508;47.450;19.128;2024-03-17T00:59:18;3.23;;;1.10;;
75732;SDS011;73508;47.450;19.128;2024-03-17T01:01:43;2.83;;;1.13;;
75732;SDS011;73508;47.450;19.128;2024-03-17T01:04:09;3.50;;;1.00;;
75732;SDS011;73508;47.450;19.128;2024-03-17T01:06:34;2.60;;;1.00;;
75732;SDS011;73508;47.450;19.128;2024-03-17T01:08:59;3.60;;;1.00;;
75732;SDS011;73508;47.450;19.128;2024-03-17T01:11:25;2.60;;;1.00;;
75732;SDS011;73508;47.450;19.128;2024-03-17T01:13:50;3.40;;;1.30;;
75732;SDS011;73508;47.450;19.128;2024-03-17T01:16:16;3.17;;;1.20;;
75732;SDS011;73508;47.450;19.128;2024-03-17T01:18:41;3.07;;;1.20;;
75732;SDS011;73508;47.450;19.128;2024-03-17T01:21:08;3.20;;;1.50;;
75732;SDS011;73508;47.450;19.128;2024-03-17T01:23:33;4.83;;;1.40;;
75732;SDS011;73508;47.450;19.128;2024-03-17T01:25:59;3.37;;;1.40;;
75732;SDS011;73508;47.450;19.128;2024-03-17T01:28:24;4.30;;;1.17;;
75732;SDS011;73508;47.450;19.128;2024-03-17T01:30:49;4.53;;;1.67;;
75732;SDS011;73508;47.450;19.128;2024-03-17T01:33:15;3.20;;;1.20;;
75732;SDS011;73508;47.450;19.128;2024-03-17T01:35:42;3.55;;;1.15;;
75732;SDS011;73508;47.450;19.128;2024-03-17T01:38:08;3.73;;;1.40;;
75732;SDS011;73508;47.450;19.128;2024-03-17T01:40:35;3.08;;;1.40;;
75732;SDS011;73508;47.450;19.128;2024-03-17T01:43:00;3.10;;;1.33;;
75732;SDS011;73508;47.450;19.128;2024-03-17T01:45:29;3.97;;;2.03;;
75732;SDS011;73508;47.450;19.128;2024-03-17T01:48:00;3.67;;;1.43;;
75732;SDS011;73508;47.450;19.128;2024-03-17T01:50:31;2.97;;;1.33;;
75732;SDS011;73508;47.450;19.128;2024-03-17T01:53:00;4.28;;;1.70;;
75732;SDS011;73508;47.450;19.128;2024-03-17T01:55:29;3.67;;;1.48;;
75732;SDS011;73508;47.450;19.128;2024-03-17T01:57:54;3.97;;;1.67;;
75732;SDS011;73508;47.450;19.128;2024-03-17T02:03:42;5.12;;;1.87;;
75732;SDS011;73508;47.450;19.128;2024-03-17T02:06:08;3.47;;;1.40;;
75732;SDS011;73508;47.450;19.128;2024-03-17T02:08:50;4.35;;;1.85;;
75732;SDS011;73508;47.450;19.128;2024-03-17T02:11:23;3.58;;;1.58;;
75732;SDS011;73508;47.450;19.128;2024-03-17T02:13:53;4.60;;;2.10;;
75732;SDS011;73508;47.450;19.128;2024-03-17T02:16:19;4.82;;;1.92;;
75732;SDS011;73508;47.450;19.128;2024-03-17T02:18:45;3.80;;;1.70;;
75732;SDS011;73508;47.450;19.128;2024-03-17T02:21:11;3.87;;;1.70;;
75732;SDS011;73508;47.450;19.128;2024-03-17T02:23:40;3.70;;;1.87;;
75732;SDS011;73508;47.450;19.128;2024-03-17T02:26:06;7.13;;;2.23;;
75732;SDS011;73508;47.450;19.128;2024-03-17T02:28:39;3.97;;;1.70;;
75732;SDS011;73508;47.450;19.128;2024-03-17T02:31:08;4.43;;;2.10;;
75732;SDS011;73508;47.450;19.128;2024-03-17T02:33:34;4.30;;;2.00;;
75732;SDS011;73508;47.450;19.128;2024-03-17T02:35:59;4.20;;;2.22;;
75732;SDS011;73508;47.450;19.128;2024-03-17T02:38:25;4.63;;;2.33;;
75732;SDS011;73508;47.450;19.128;2024-03-17T02:41:09;4.28;;;2.22;;
75732;SDS011;73508;47.450;19.128;2024-03-17T02:43:34;6.60;;;2.20;;
75732;SDS011;73508;47.450;19.128;2024-03-17T02:46:00;4.12;;;2.20;;
75732;SDS011;73508;47.450;19.128;2024-03-17T02:48:29;4.10;;;2.10;;
75732;SDS011;73508;47.450;19.128;2024-03-17T02:50:55;4.55;;;2.08;;
75732;SDS011;73508;47.450;19.128;2024-03-17T02:53:21;4.93;;;2.25;;
75732;SDS011;73508;47.450;19.128;2024-03-17T02:55:46;4.23;;;2.30;;
75732;SDS011;73508;47.450;19.128;2024-03-17T02:58:11;5.50;;;2.30;;
75732;SDS011;73508;47.450;19.128;2024-03-17T03:00:37;3.80;;;2.03;;
75732;SDS011;73508;47.450;19.128;2024-03-17T03:03:02;4.03;;;2.23;;
75732;SDS011;73508;47.450;19.128;2024-03-17T03:05:27;4.93;;;1.85;;
75732;SDS011;73508;47.450;19.128;2024-03-17T03:07:53;5.03;;;2.37;;
75732;SDS011;73508;47.450;19.128;2024-03-17T03:10:18;4.37;;;2.13;;
75732;SDS011;73508;47.450;19.128;2024-03-17T03:12:44;4.90;;;2.17;;
75732;SDS011;73508;47.450;19.128;2024-03-17T03:15:09;5.10;;;2.30;;
75732;SDS011;73508;47.450;19.128;2024-03-17T03:17:35;4.60;;;2.30;;
75732;SDS011;73508;47.450;19.128;2024-03-17T03:20:00;4.77;;;2.33;;
75732;SDS011;73508;47.450;19.128;2024-03-17T03:22:26;3.85;;;1.90;;
75732;SDS011;73508;47.450;19.128;2024-03-17T03:24:51;4.13;;;2.23;;
75732;SDS011;73508;47.450;19.128;2024-03-17T03:27:17;4.82;;;2.10;;
75732;SDS011;73508;47.450;19.128;2024-03-17T03:29:43;4.10;;;2.00;;
75732;SDS011;73508;47.450;19.128;2024-03-17T03:32:08;4.23;;;2.07;;
75732;SDS011;73508;47.450;19.128;2024-03-17T03:34:33;4.77;;;2.20;;
75732;SDS011;73508;47.450;19.128;2024-03-17T03:36:59;5.10;;;2.30;;
75732;SDS011;73508;47.450;19.128;2024-03-17T03:39:24;4.17;;;2.10;;
75732;SDS011;73508;47.450;19.128;2024-03-17T03:41:53;4.05;;;1.90;;
75732;SDS011;73508;47.450;19.128;2024-03-17T03:44:20;3.95;;;1.90;;
75732;SDS011;73508;47.450;19.128;2024-03-17T03:46:45;3.50;;;1.90;;
75732;SDS011;73508;47.450;19.128;2024-03-17T03:49:11;5.43;;;2.03;;
75732;SDS011;73508;47.450;19.128;2024-03-17T03:51:37;4.80;;;2.00;;
75732;SDS011;73508;47.450;19.128;2024-03-17T03:54:02;3.43;;;1.70;;
75732;SDS011;73508;47.450;19.128;2024-03-17T03:56:31;4.35;;;2.10;;
75732;SDS011;73508;47.450;19.128;2024-03-17T03:58:56;3.30;;;1.50;;
75732;SDS011;73508;47.450;19.128;2024-03-17T04:01:21;4.00;;;2.00;;
75732;SDS011;73508;47.450;19.128;2024-03-17T04:03:47;4.33;;;2.00;;
75732;SDS011;73508;47.450;19.128;2024-03-17T04:06:13;3.60;;;1.87;;
75732;SDS011;73508;47.450;19.128;2024-03-17T04:08:40;5.97;;;2.10;;
75732;SDS011;73508;47.450;19.128;2024-03-17T04:11:06;5.63;;;2.23;;
75732;SDS011;73508;47.450;19.128;2024-03-17T04:13:32;4.18;;;2.33;;
75732;SDS011;73508;47.450;19.128;2024-03-17T04:15:58;4.63;;;1.93;;
75732;SDS011;73508;47.450;19.128;2024-03-17T04:18:30;8.90;;;2.50;;
75732;SDS011;73508;47.450;19.128;2024-03-17T04:20:56;5.05;;;2.10;;
75732;SDS011;73508;47.450;19.128;2024-03-17T04:23:22;3.50;;;1.63;;
75732;SDS011;73508;47.450;19.128;2024-03-17T04:25:48;4.53;;;1.98;;
75732;SDS011;73508;47.450;19.128;2024-03-17T04:28:15;4.87;;;2.03;;
75732;SDS011;73508;47.450;19.128;2024-03-17T04:30:40;7.17;;;2.53;;
75732;SDS011;73508;47.450;19.128;2024-03-17T04:33:07;4.27;;;2.10;;
75732;SDS011;73508;47.450;19.128;2024-03-17T04:35:36;4.62;;;2.12;;
75732;SDS011;73508;47.450;19.128;2024-03-17T04:38:04;3.90;;;1.70;;
75732;SDS011;73508;47.450;19.128;2024-03-17T04:40:33;4.47;;;2.00;;
75732;SDS011;73508;47.450;19.128;2024-03-17T04:42:58;4.28;;;1.80;;
75732;SDS011;73508;47.450;19.128;2024-03-17T04:45:24;4.80;;;2.00;;
75732;SDS011;73508;47.450;19.128;2024-03-17T04:47:49;4.13;;;1.93;;
75732;SDS011;73508;47.450;19.128;2024-03-17T04:50:15;4.20;;;2.00;;
75732;SDS011;73508;47.450;19.128;2024-03-17T04:52:40;4.03;;;2.00;;
75732;SDS011;73508;47.450;19.128;2024-03-17T04:55:06;5.27;;;2.07;;
75732;SDS011;73508;47.450;19.128;2024-03-17T04:57:31;4.57;;;1.97;;
75732;SDS011;73508;47.450;19.128;2024-03-17T04:59:57;5.33;;;2.03;;
75732;SDS011;73508;47.450;19.128;2024-03-17T05:02:22;4.03;;;1.90;;
75732;SDS011;73508;47.450;19.128;2024-03-17T05:04:48;4.65;;;2.00;;
75732;SDS011;73508;47.450;19.128;2024-03-17T05:07:14;5.77;;;1.90;;
75732;SDS011;73508;47.450;19.128;2024-03-17T05:09:40;4.33;;;2.07;;
75732;SDS011;73508;47.450;19.128;2024-03-17T05:12:05;5.40;;;2.00;;
75732;SDS011;73508;47.450;19.128;2024-03-17T05:14:30;4.67;;;2.00;;
75732;SDS011;73508;47.450;19.128;2024-03-17T05:16:56;4.63;;;2.00;;
75732;SDS011;73508;47.450;19.128;2024-03-17T05:19:21;4.00;;;2.20;;
75732;SDS011;73508;47.450;19.128;2024-03-17T05:21:48;7.80;;;2.25;;
75732;SDS011;73508;47.450;19.128;2024-03-17T05:24:13;4.80;;;2.22;;
75732;SDS011;73508;47.450;19.128;2024-03-17T05:26:39;3.90;;;2.00;;
75732;SDS011;73508;47.450;19.128;2024-03-17T05:29:04;4.30;;;2.23;;
75732;SDS011;73508;47.450;19.128;2024-03-17T05:31:30;5.23;;;2.07;;
75732;SDS011;73508;47.450;19.128;2024-03-17T05:33:56;3.80;;;1.87;;
75732;SDS011;73508;47.450;19.128;2024-03-17T05:36:21;4.20;;;2.10;;
75732;SDS011;73508;47.450;19.128;2024-03-17T05:38:47;4.13;;;1.90;;
75732;SDS011;73508;47.450;19.128;2024-03-17T05:41:12;3.90;;;1.57;;
75732;SDS011;73508;47.450;19.128;2024-03-17T05:43:38;4.85;;;2.00;;
75732;SDS011;73508;47.450;19.128;2024-03-17T05:46:07;5.17;;;2.00;;
75732;SDS011;73508;47.450;19.128;2024-03-17T05:48:36;4.80;;;1.90;;
75732;SDS011;73508;47.450;19.128;2024-03-17T05:51:08;4.20;;;1.80;;
75732;SDS011;73508;47.450;19.128;2024-03-17T05:53:35;5.60;;;1.80;;
75732;SDS011;73508;47.450;19.128;2024-03-17T05:56:02;4.22;;;2.00;;
75732;SDS011;73508;47.450;19.128;2024-03-17T05:58:28;4.22;;;2.15;;
75732;SDS011;73508;47.450;19.128;2024-03-17T06:00:54;4.57;;;1.80;;
75732;SDS011;73508;47.450;19.128;2024-03-17T06:03:19;4.37;;;1.87;;
75732;SDS011;73508;47.450;19.128;2024-03-17T06:05:44;4.50;;;1.63;;
75732;SDS011;73508;47.450;19.128;2024-03-17T06:08:13;6.03;;;2.10;;
75732;SDS011;73508;47.450;19.128;2024-03-17T06:10:42;6.07;;;2.40;;
75732;SDS011;73508;47.450;19.128;2024-03-17T06:13:08;6.43;;;1.90;;
75732;SDS011;73508;47.450;19.128;2024-03-17T06:15:38;4.10;;;1.80;;
75732;SDS011;73508;47.450;19.128;2024-03-17T06:18:04;4.03;;;1.83;;
75732;SDS011;73508;47.450;19.128;2024-03-17T06:20:30;6.60;;;1.97;;
75732;SDS011;73508;47.450;19.128;2024-03-17T06:22:55;4.00;;;1.90;;
75732;SDS011;73508;47.450;19.128;2024-03-17T06:25:22;5.47;;;2.07;;
75732;SDS011;73508;47.450;19.128;2024-03-17T06:27:50;4.20;;;1.45;;
75732;SDS011;73508;47.450;19.128;2024-03-17T06:30:16;4.12;;;1.80;;
75732;SDS011;73508;47.450;19.128;2024-03-17T06:32:41;3.67;;;1.50;;
75732;SDS011;73508;47.450;19.128;2024-03-17T06:35:13;4.37;;;2.15;;
75732;SDS011;73508;47.450;19.128;2024-03-17T06:37:40;3.83;;;1.92;;
75732;SDS011;73508;47.450;19.128;2024-03-17T06:40:06;4.93;;;2.00;;
75732;SDS011;73508;47.450;19.128;2024-03-17T06:42:32;7.00;;;2.37;;
75732;SDS011;73508;47.450;19.128;2024-03-17T06:44:57;4.27;;;1.60;;
75732;SDS011;73508;47.450;19.128;2024-03-17T06:47:23;4.40;;;2.07;;
75732;SDS011;73508;47.450;19.128;2024-03-17T06:49:50;4.80;;;2.10;;
75732;SDS011;73508;47.450;19.128;2024-03-17T06:52:15;5.50;;;1.87;;
75732;SDS011;73508;47.450;19.128;2024-03-17T06:54:41;4.55;;;1.90;;
75732;SDS011;73508;47.450;19.128;2024-03-17T06:57:06;5.10;;;1.63;;
75732;SDS011;73508;47.450;19.128;2024-03-17T06:59:34;3.77;;;1.57;;
75732;SDS011;73508;47.450;19.128;2024-03-17T07:01:59;4.82;;;2.03;;
75732;SDS011;73508;47.450;19.128;2024-03-17T07:04:26;4.33;;;1.80;;
75732;SDS011;73508;47.450;19.128;2024-03-17T07:06:51;6.13;;;1.90;;
75732;SDS011;73508;47.450;19.128;2024-03-17T07:09:16;4.35;;;1.80;;
75732;SDS011;73508;47.450;19.128;2024-03-17T07:11:44;4.50;;;1.87;;
75732;SDS011;73508;47.450;19.128;2024-03-17T07:14:10;4.20;;;1.67;;
75732;SDS011;73508;47.450;19.128;2024-03-17T07:16:35;5.57;;;1.83;;
75732;SDS011;73508;47.450;19.128;2024-03-17T07:19:01;4.97;;;1.80;;
75732;SDS011;73508;47.450;19.128;2024-03-17T07:21:27;3.92;;;1.62;;
75732;SDS011;73508;47.450;19.128;2024-03-17T07:23:52;3.20;;;1.33;;
75732;SDS011;73508;47.450;19.128;2024-03-17T07:26:18;4.47;;;1.70;;
75732;SDS011;73508;47.450;19.128;2024-03-17T07:28:43;4.40;;;1.60;;
75732;SDS011;73508;47.450;19.128;2024-03-17T07:31:09;5.18;;;1.62;;
75732;SDS011;73508;47.450;19.128;2024-03-17T07:33:35;3.62;;;1.67;;
75732;SDS011;73508;47.450;19.128;2024-03-17T07:36:00;4.37;;;1.40;;
75732;SDS011;73508;47.450;19.128;2024-03-17T07:38:27;4.82;;;1.70;;
75732;SDS011;73508;47.450;19.128;2024-03-17T07:41:00;3.53;;;1.30;;
75732;SDS011;73508;47.450;19.128;2024-03-17T07:43:27;4.18;;;1.80;;
75732;SDS011;73508;47.450;19.128;2024-03-17T07:45:59;4.78;;;1.60;;
75732;SDS011;73508;47.450;19.128;2024-03-17T07:48:32;5.53;;;1.70;;
75732;SDS011;73508;47.450;19.128;2024-03-17T07:51:06;4.60;;;1.70;;
75732;SDS011;73508;47.450;19.128;2024-03-17T07:53:34;4.10;;;1.48;;
75732;SDS011;73508;47.450;19.128;2024-03-17T07:56:06;5.47;;;1.70;;
75732;SDS011;73508;47.450;19.128;2024-03-17T07:58:34;4.90;;;1.60;;
75732;SDS011;73508;47.450;19.128;2024-03-17T08:01:03;3.78;;;1.80;;
75732;SDS011;73508;47.450;19.128;2024-03-17T08:03:30;4.10;;;1.30;;
75732;SDS011;73508;47.450;19.128;2024-03-17T08:05:59;5.75;;;1.40;;
75732;SDS011;73508;47.450;19.128;2024-03-17T08:08:25;4.35;;;1.70;;
75732;SDS011;73508;47.450;19.128;2024-03-17T08:10:50;3.13;;;1.20;;
75732;SDS011;73508;47.450;19.128;2024-03-17T08:13:16;4.43;;;1.58;;
75732;SDS011;73508;47.450;19.128;2024-03-17T08:15:42;5.57;;;1.77;;
75732;SDS011;73508;47.450;19.128;2024-03-17T08:18:08;3.50;;;1.58;;
75732;SDS011;73508;47.450;19.128;2024-03-17T08:20:40;4.45;;;1.52;;
75732;SDS011;73508;47.450;19.128;2024-03-17T08:23:07;4.65;;;1.90;;
75732;SDS011;73508;47.450;19.128;2024-03-17T08:25:33;6.93;;;1.77;;
75732;SDS011;73508;47.450;19.128;2024-03-17T08:27:59;3.67;;;1.35;;
75732;SDS011;73508;47.450;19.128;2024-03-17T08:30:24;4.80;;;1.70;;
75732;SDS011;73508;47.450;19.128;2024-03-17T08:32:50;3.60;;;1.33;;
75732;SDS011;73508;47.450;19.128;2024-03-17T08:35:15;4.93;;;1.42;;
75732;SDS011;73508;47.450;19.128;2024-03-17T08:37:40;3.97;;;1.10;;
75732;SDS011;73508;47.450;19.128;2024-03-17T08:40:06;3.57;;;1.30;;
75732;SDS011;73508;47.450;19.128;2024-03-17T08:42:32;5.30;;;1.30;;
75732;SDS011;73508;47.450;19.128;2024-03-17T08:44:57;4.77;;;1.17;;
75732;SDS011;73508;47.450;19.128;2024-03-17T08:47:23;6.27;;;1.50;;
75732;SDS011;73508;47.450;19.128;2024-03-17T08:49:51;4.13;;;1.50;;
75732;SDS011;73508;47.450;19.128;2024-03-17T08:52:17;3.40;;;1.10;;
75732;SDS011;73508;47.450;19.128;2024-03-17T08:54:45;4.68;;;1.23;;
75732;SDS011;73508;47.450;19.128;2024-03-17T08:57:11;4.65;;;1.40;;
75732;SDS011;73508;47.450;19.128;2024-03-17T08:59:37;7.63;;;1.77;;
75732;SDS011;73508;47.450;19.128;2024-03-17T09:02:02;4.77;;;1.40;;
75732;SDS011;73508;47.450;19.128;2024-03-17T09:04:28;4.13;;;1.50;;
75732;SDS011;73508;47.450;19.128;2024-03-17T09:06:54;6.40;;;1.30;;
75732;SDS011;73508;47.450;19.128;2024-03-17T09:09:21;5.87;;;1.45;;
75732;SDS011;73508;47.450;19.128;2024-03-17T09:11:47;3.92;;;1.55;;
75732;SDS011;73508;47.450;19.128;2024-03-17T09:14:12;5.87;;;1.00;;
75732;SDS011;73508;47.450;19.128;2024-03-17T09:16:37;5.87;;;1.20;;
75732;SDS011;73508;47.450;19.128;2024-03-17T09:19:03;5.20;;;1.50;;
75732;SDS011;73508;47.450;19.128;2024-03-17T09:21:28;4.57;;;1.77;;
75732;SDS011;73508;47.450;19.128;2024-03-17T09:23:53;4.73;;;1.30;;
75732;SDS011;73508;47.450;19.128;2024-03-17T09:26:19;3.93;;;1.40;;
75732;SDS011;73508;47.450;19.128;2024-03-17T09:28:44;6.13;;;1.80;;
75732;SDS011;73508;47.450;19.128;2024-03-17T09:31:10;4.63;;;1.73;;
75732;SDS011;73508;47.450;19.128;2024-03-17T09:33:36;4.12;;;1.55;;
75732;SDS011;73508;47.450;19.128;2024-03-17T09:36:05;3.90;;;1.20;;
75732;SDS011;73508;47.450;19.128;2024-03-17T09:38:31;4.43;;;1.52;;
75732;SDS011;73508;47.450;19.128;2024-03-17T09:40:57;6.10;;;1.75;;
75732;SDS011;73508;47.450;19.128;2024-03-17T09:43:25;5.78;;;1.90;;
75732;SDS011;73508;47.450;19.128;2024-03-17T09:45:51;5.03;;;1.87;;
75732;SDS011;73508;47.450;19.128;2024-03-17T09:48:22;4.57;;;1.63;;
75732;SDS011;73508;47.450;19.128;2024-03-17T09:50:52;4.05;;;1.33;;
75732;SDS011;73508;47.450;19.128;2024-03-17T09:53:22;4.97;;;1.70;;
75732;SDS011;73508;47.450;19.128;2024-03-17T09:55:56;7.20;;;1.42;;
75732;SDS011;73508;47.450;19.128;2024-03-17T09:58:23;4.60;;;1.50;;
75732;SDS011;73508;47.450;19.128;2024-03-17T10:00:48;3.73;;;1.33;;
75732;SDS011;73508;47.450;19.128;2024-03-17T10:06:05;4.65;;;1.50;;
75732;SDS011;73508;47.450;19.128;2024-03-17T10:08:30;3.80;;;1.30;;
75732;SDS011;73508;47.450;19.128;2024-03-17T10:10:59;4.37;;;1.65;;
75732;SDS011;73508;47.450;19.128;2024-03-17T10:13:24;5.60;;;1.20;;
75732;SDS011;73508;47.450;19.128;2024-03-17T10:15:49;4.93;;;1.60;;
75732;SDS011;73508;47.450;19.128;2024-03-17T10:18:22;4.67;;;1.37;;
75732;SDS011;73508;47.450;19.128;2024-03-17T10:20:48;3.75;;;1.30;;
75732;SDS011;73508;47.450;19.128;2024-03-17T10:23:20;3.62;;;1.17;;
75732;SDS011;73508;47.450;19.128;2024-03-17T10:25:45;5.73;;;1.40;;
75732;SDS011;73508;47.450;19.128;2024-03-17T10:28:11;3.73;;;1.10;;
75732;SDS011;73508;47.450;19.128;2024-03-17T10:30:37;5.15;;;1.50;;
75732;SDS011;73508;47.450;19.128;2024-03-17T10:33:05;3.65;;;1.20;;
75732;SDS011;73508;47.450;19.128;2024-03-17T10:35:33;5.65;;;1.60;;
75732;SDS011;73508;47.450;19.128;2024-03-17T10:38:00;4.63;;;1.50;;
75732;SDS011;73508;47.450;19.128;2024-03-17T10:40:27;3.58;;;1.40;;
75732;SDS011;73508;47.450;19.128;2024-03-17T10:42:54;4.40;;;1.50;;
75732;SDS011;73508;47.450;19.128;2024-03-17T10:45:20;3.75;;;1.33;;
75732;SDS011;73508;47.450;19.128;2024-03-17T10:47:47;3.62;;;1.40;;
75732;SDS011;73508;47.450;19.128;2024-03-17T10:50:21;7.43;;;1.73;;
75732;SDS011;73508;47.450;19.128;2024-03-17T10:52:49;4.62;;;1.60;;
75732;SDS011;73508;47.450;19.128;2024-03-17T10:55:24;7.47;;;1.55;;
75732;SDS011;73508;47.450;19.128;2024-03-17T10:57:51;7.43;;;1.50;;
75732;SDS011;73508;47.450;19.128;2024-03-17T11:00:19;4.97;;;1.55;;
75732;SDS011;73508;47.450;19.128;2024-03-17T11:02:47;3.20;;;1.40;;
75732;SDS011;73508;47.450;19.128;2024-03-17T11:05:18;4.78;;;1.40;;
75732;SDS011;73508;47.450;19.128;2024-03-17T11:07:48;3.42;;;1.20;;
75732;SDS011;73508;47.450;19.128;2024-03-17T11:10:14;5.15;;;1.20;;
75732;SDS011;73508;47.450;19.128;2024-03-17T11:12:45;4.47;;;1.98;;
75732;SDS011;73508;47.450;19.128;2024-03-17T11:17:47;3.08;;;1.10;;
75732;SDS011;73508;47.450;19.128;2024-03-17T11:20:26;5.10;;;1.58;;
75732;SDS011;73508;47.450;19.128;2024-03-17T11:22:56;4.62;;;1.37;;
75732;SDS011;73508;47.450;19.128;2024-03-17T11:27:54;5.07;;;1.73;;
75732;SDS011;73508;47.450;19.128;2024-03-17T11:49:34;3.67;;;1.60;;
75732;SDS011;73508;47.450;19.128;2024-03-17T11:52:09;5.15;;;1.77;;
75732;SDS011;73508;47.450;19.128;2024-03-17T11:54:42;4.17;;;1.70;;
75732;SDS011;73508;47.450;19.128;2024-03-17T11:57:10;5.07;;;1.87;;
75732;SDS011;73508;47.450;19.128;2024-03-17T11:59:36;3.42;;;1.60;;
75732;SDS011;73508;47.450;19.128;2024-03-17T12:02:02;7.28;;;1.60;;
75732;SDS011;73508;47.450;19.128;2024-03-17T12:04:39;4.07;;;1.80;;
75732;SDS011;73508;47.450;19.128;2024-03-17T12:07:07;6.77;;;2.20;;
75732;SDS011;73508;47.450;19.128;2024-03-17T12:09:36;4.80;;;1.65;;
75732;SDS011;73508;47.450;19.128;2024-03-17T12:12:09;4.10;;;1.50;;
75732;SDS011;73508;47.450;19.128;2024-03-17T12:14:36;4.43;;;1.67;;
75732;SDS011;73508;47.450;19.128;2024-03-17T12:17:04;3.72;;;1.73;;
75732;SDS011;73508;47.450;19.128;2024-03-17T12:19:32;8.57;;;1.90;;
75732;SDS011;73508;47.450;19.128;2024-03-17T12:21:58;4.37;;;1.63;;
75732;SDS011;73508;47.450;19.128;2024-03-17T12:24:25;4.03;;;1.62;;
75732;SDS011;73508;47.450;19.128;2024-03-17T12:26:51;5.23;;;1.80;;
75732;SDS011;73508;47.450;19.128;2024-03-17T12:29:34;5.25;;;1.70;;
75732;SDS011;73508;47.450;19.128;2024-03-17T12:32:04;3.78;;;1.60;;
75732;SDS011;73508;47.450;19.128;2024-03-17T12:34:33;6.03;;;1.62;;
75732;SDS011;73508;47.450;19.128;2024-03-17T12:37:02;3.47;;;1.48;;
75732;SDS011;73508;47.450;19.128;2024-03-17T12:39:28;3.37;;;1.47;;
75732;SDS011;73508;47.450;19.128;2024-03-17T12:42:27;5.32;;;1.73;;
75732;SDS011;73508;47.450;19.128;2024-03-17T12:44:49;4.97;;;1.20;;
75732;SDS011;73508;47.450;19.128;2024-03-17T12:47:19;4.93;;;1.40;;
75732;SDS011;73508;47.450;19.128;2024-03-17T12:49:46;3.60;;;1.50;;
75732;SDS011;73508;47.450;19.128;2024-03-17T12:52:31;4.00;;;1.40;;
75732;SDS011;73508;47.450;19.128;2024-03-17T12:55:01;6.07;;;1.95;;
75732;SDS011;73508;47.450;19.128;2024-03-17T12:57:46;3.70;;;1.70;;
75732;SDS011;73508;47.450;19.128;2024-03-17T13:00:31;4.03;;;1.50;;
75732;SDS011;73508;47.450;19.128;2024-03-17T13:02:57;4.57;;;1.40;;
75732;SDS011;73508;47.450;19.128;2024-03-17T13:05:22;4.65;;;1.30;;
75732;SDS011;73508;47.450;19.128;2024-03-17T13:07:50;4.95;;;1.45;;
75732;SDS011;73508;47.450;19.128;2024-03-17T13:10:16;4.87;;;1.30;;
75732;SDS011;73508;47.450;19.128;2024-03-17T13:12:44;3.67;;;1.50;;
75732;SDS011;73508;47.450;19.128;2024-03-17T13:15:11;4.12;;;1.20;;
75732;SDS011;73508;47.450;19.128;2024-03-17T13:17:37;3.90;;;1.30;;
75732;SDS011;73508;47.450;19.128;2024-03-17T13:20:04;3.55;;;1.40;;
75732;SDS011;73508;47.450;19.128;2024-03-17T13:22:33;5.23;;;1.20;;
75732;SDS011;73508;47.450;19.128;2024-03-17T13:25:00;4.45;;;1.27;;
75732;SDS011;73508;47.450;19.128;2024-03-17T13:27:25;4.63;;;1.20;;
75732;SDS011;73508;47.450;19.128;2024-03-17T13:29:50;3.57;;;1.50;;
75732;SDS011;73508;47.450;19.128;2024-03-17T13:32:15;4.50;;;1.20;;
75732;SDS011;73508;47.450;19.128;2024-03-17T13:34:42;4.27;;;1.33;;
75732;SDS011;73508;47.450;19.128;2024-03-17T13:37:08;2.72;;;1.00;;
75732;SDS011;73508;47.450;19.128;2024-03-17T13:39:33;3.10;;;1.00;;
75732;SDS011;73508;47.450;19.128;2024-03-17T13:41:59;3.95;;;1.65;;
75732;SDS011;73508;47.450;19.128;2024-03-17T13:44:28;3.83;;;1.13;;
75732;SDS011;73508;47.450;19.128;2024-03-17T13:46:54;5.00;;;1.33;;
75732;SDS011;73508;47.450;19.128;2024-03-17T13:49:20;5.50;;;1.20;;
75732;SDS011;73508;47.450;19.128;2024-03-17T13:51:45;3.95;;;1.15;;
75732;SDS011;73508;47.450;19.128;2024-03-17T13:54:11;4.70;;;1.10;;
75732;SDS011;73508;47.450;19.128;2024-03-17T13:56:36;3.97;;;1.27;;
75732;SDS011;73508;47.450;19.128;2024-03-17T13:59:02;3.37;;;1.00;;
75732;SDS011;73508;47.450;19.128;2024-03-17T14:01:27;3.30;;;1.00;;
75732;SDS011;73508;47.450;19.128;2024-03-17T14:03:52;4.77;;;1.40;;
75732;SDS011;73508;47.450;19.128;2024-03-17T14:06:19;5.03;;;1.55;;
75732;SDS011;73508;47.450;19.128;2024-03-17T14:08:44;4.10;;;1.47;;
75732;SDS011;73508;47.450;19.128;2024-03-17T14:11:10;3.77;;;1.20;;
75732;SDS011;73508;47.450;19.128;2024-03-17T14:13:35;4.03;;;1.60;;
75732;SDS011;73508;47.450;19.128;2024-03-17T14:16:01;3.65;;;1.20;;
75732;SDS011;73508;47.450;19.128;2024-03-17T14:18:26;4.77;;;1.40;;
75732;SDS011;73508;47.450;19.128;2024-03-17T14:20:51;3.63;;;1.53;;
75732;SDS011;73508;47.450;19.128;2024-03-17T14:23:17;3.97;;;1.55;;
75732;SDS011;73508;47.450;19.128;2024-03-17T14:25:43;4.80;;;1.43;;
75732;SDS011;73508;47.450;19.128;2024-03-17T14:28:08;7.77;;;1.27;;
75732;SDS011;73508;47.450;19.128;2024-03-17T14:30:34;3.07;;;1.20;;
75732;SDS011;73508;47.450;19.128;2024-03-17T14:32:59;4.47;;;1.20;;
75732;SDS011;73508;47.450;19.128;2024-03-17T14:35:24;4.30;;;1.33;;
75732;SDS011;73508;47.450;19.128;2024-03-17T14:37:51;4.65;;;1.50;;
75732;SDS011;73508;47.450;19.128;2024-03-17T14:40:17;5.50;;;1.63;;
75732;SDS011;73508;47.450;19.128;2024-03-17T14:42:48;5.20;;;1.33;;
75732;SDS011;73508;47.450;19.128;2024-03-17T14:45:15;4.72;;;1.33;;
75732;SDS011;73508;47.450;19.128;2024-03-17T14:47:40;4.82;;;1.27;;
75732;SDS011;73508;47.450;19.128;2024-03-17T14:50:06;5.47;;;1.13;;
75732;SDS011;73508;47.450;19.128;2024-03-17T14:52:32;3.23;;;1.03;;
75732;SDS011;73508;47.450;19.128;2024-03-17T14:54:57;4.68;;;1.35;;
75732;SDS011;73508;47.450;19.128;2024-03-17T14:57:23;3.77;;;1.27;;
75732;SDS011;73508;47.450;19.128;2024-03-17T14:59:48;3.30;;;1.13;;
75732;SDS011;73508;47.450;19.128;2024-03-17T15:02:13;5.33;;;1.47;;